Time;durP1;ratioP1;P1;durP2;ratioP2;P2;SDS_P1;SDS_P2;PMS_P1;PMS_P2;Temp;Humidity;BMP_temperature;BMP_pressure;BME280_temperature;BME280_humidity;BME280_pressure;Samples;Min_cycle;Max_cycle;Signal;HPM_P1;HPM_P2
2022/07/31 00:00:57;;;;;;;;;;;;;;;20.62;60.30;99342.78;4439171;32;20031;-89
2022/07/31 00:03:22;;;;;;;;;;;;;;;20.55;60.31;99345.06;4439617;32;20038;-87
2022/07/31 00:05:47;;;;;;;;;;;;;;;20.59;60.30;99343.88;4438792;32;23625;-88
2022/07/31 00:08:12;;;;;;;;;;;;;;;20.59;60.30;99338.59;4438928;32;24191;-88
2022/07/31 00:10:38;;;;;;;;;;;;;;;20.53;60.30;99334.59;4451417;32;32240;-89
2022/07/31 00:13:03;;;;;;;;;;;;;;;20.52;60.30;99332.91;4439378;32;19988;-88
2022/07/31 00:15:28;;;;;;;;;;;;;;;20.41;60.30;99338.22;4428993;32;19985;-88
2022/07/31 00:17:53;;;;;;;;;;;;;;;20.49;60.30;99330.53;4440319;32;20014;-88
2022/07/31 00:20:19;;;;;;;;;;;;;;;20.56;60.31;99325.56;4441522;32;21375;-88
2022/07/31 00:22:44;;;;;;;;;;;;;;;20.65;60.31;99329.31;4439054;32;19985;-87
2022/07/31 00:25:10;;;;;;;;;;;;;;;20.47;60.30;99321.03;4439358;32;19985;-88
2022/07/31 00:27:35;;;;;;;;;;;;;;;20.45;60.29;99315.87;4439107;32;20001;-88
2022/07/31 00:30:00;;;;;;;;;;;;;;;20.42;60.29;99323.22;4438737;32;20034;-86
2022/07/31 00:32:25;;;;;;;;;;;;;;;20.16;60.27;99325.22;4438283;32;31329;-87
2022/07/31 00:34:51;;;;;;;;;;;;;;;20.18;60.29;99320.66;4438356;32;25791;-89
2022/07/31 00:37:16;;;;;;;;;;;;;;;20.15;60.27;99313.81;4453076;32;19985;-88
2022/07/31 00:39:41;;;;;;;;;;;;;;;20.02;60.27;99326.28;4438482;32;21582;-88
2022/07/31 00:42:16;;;;;;;;;;;;;;;20.04;60.27;99326.16;4448997;32;29979;-88
2022/07/31 00:44:41;;;;;;;;;;;;;;;20.12;60.28;99321.16;4438528;32;19985;-88
2022/07/31 00:47:07;;;;;;;;;;;;;;;19.94;60.27;99326.06;4437955;32;22072;-88
2022/07/31 00:49:33;;;;;;;;;;;;;;;20.00;60.28;99328.22;4438549;32;19977;-89
2022/07/31 00:51:58;;;;;;;;;;;;;;;19.73;60.26;99330.34;4439631;32;27265;-88
2022/07/31 00:54:23;;;;;;;;;;;;;;;19.88;60.26;99329.19;4454338;32;28701;-88
2022/07/31 00:56:49;;;;;;;;;;;;;;;19.76;60.25;99333.59;4440882;32;20000;-89
2022/07/31 00:59:14;;;;;;;;;;;;;;;19.74;60.25;99330.22;4440893;32;19982;-88
2022/07/31 01:01:39;;;;;;;;;;;;;;;19.79;60.26;99333.34;4440943;32;19973;-87
2022/07/31 01:04:05;;;;;;;;;;;;;;;19.81;60.26;99336.72;4454757;32;20330;-88
2022/07/31 01:06:30;;;;;;;;;;;;;;;20.07;60.27;99336.50;4454421;32;23702;-89
2022/07/31 01:08:55;;;;;;;;;;;;;;;19.76;60.25;99341.50;4440173;32;27863;-88
2022/07/31 01:11:27;;;;;;;;;;;;;;;19.98;60.27;99339.88;4452899;32;26325;-89
2022/07/31 01:13:59;;;;;;;;;;;;;;;20.05;60.27;99341.06;4440985;32;19995;-88
2022/07/31 01:16:26;;;;;;;;;;;;;;;20.09;60.28;99337.22;4440677;32;19989;-88
2022/07/31 01:18:51;;;;;;;;;;;;;;;20.13;60.28;99341.34;4433160;32;19980;-88
2022/07/31 01:21:19;;;;;;;;;;;;;;;20.18;60.29;99337.34;4449934;32;20033;-88
2022/07/31 01:23:51;;;;;;;;;;;;;;;20.17;60.29;99333.03;4455105;32;20005;-87
2022/07/31 01:26:26;;;;;;;;;;;;;;;20.14;60.28;99335.09;4440633;32;20001;-88
2022/07/31 01:29:00;;;;;;;;;;;;;;;20.16;60.28;99339.28;4438067;32;20026;-88
2022/07/31 01:31:37;;;;;;;;;;;;;;;20.29;60.28;99348.88;4434944;32;19984;-87
2022/07/31 01:34:05;;;;;;;;;;;;;;;20.09;60.28;99347.78;4444911;32;20392;-88
2022/07/31 01:36:33;;;;;;;;;;;;;;;20.26;60.28;99338.56;4440661;32;20346;-88
2022/07/31 01:38:58;;;;;;;;;;;;;;;20.36;60.29;99350.94;4455019;32;19996;-89
2022/07/31 01:41:25;;;;;;;;;;;;;;;20.43;60.29;99348.69;4448877;32;20025;-88
2022/07/31 01:43:50;;;;;;;;;;;;;;;20.33;60.29;99352.97;4427750;32;20004;-89
2022/07/31 01:46:16;;;;;;;;;;;;;;;20.44;60.29;99353.84;4440601;32;20068;-88
2022/07/31 01:48:41;;;;;;;;;;;;;;;20.35;60.29;99356.34;4440533;32;20053;-89
2022/07/31 01:51:07;;;;;;;;;;;;;;;20.30;60.29;99358.50;4440626;32;20302;-89
2022/07/31 01:53:35;;;;;;;;;;;;;;;20.18;60.28;99362.94;4440674;32;20013;-88
2022/07/31 01:56:00;;;;;;;;;;;;;;;20.25;60.28;99356.22;4440948;32;19999;-88
2022/07/31 01:58:25;;;;;;;;;;;;;;;20.38;60.28;99354.31;4441291;32;20281;-88
2022/07/31 02:00:51;;;;;;;;;;;;;;;20.38;60.28;99356.09;4448583;32;20018;-88
2022/07/31 02:03:16;;;;;;;;;;;;;;;20.56;60.31;99357.31;4434418;32;20005;-88
2022/07/31 02:05:42;;;;;;;;;;;;;;;20.52;60.30;99356.72;4440274;32;20364;-89
2022/07/31 02:08:07;;;;;;;;;;;;;;;20.39;60.29;99350.69;4440416;32;20220;-88
2022/07/31 02:10:32;;;;;;;;;;;;;;;20.44;60.29;99348.56;4438702;32;20024;-88
2022/07/31 02:12:57;;;;;;;;;;;;;;;20.52;60.30;99351.44;4430948;32;20022;-88
2022/07/31 02:15:23;;;;;;;;;;;;;;;20.50;60.30;99352.50;4440448;32;20322;-88
2022/07/31 02:17:48;;;;;;;;;;;;;;;20.42;60.30;99347.84;4439761;32;25808;-89
2022/07/31 02:20:13;;;;;;;;;;;;;;;20.40;60.29;99347.13;4440227;32;20024;-88
2022/07/31 02:22:38;;;;;;;;;;;;;;;20.26;60.29;99338.56;4439680;32;22200;-88
2022/07/31 02:25:04;;;;;;;;;;;;;;;20.34;60.29;99339.63;4440257;32;19993;-87
2022/07/31 02:27:29;;;;;;;;;;;;;;;20.24;60.29;99323.66;4440051;32;20579;-89
2022/07/31 02:29:54;;;;;;;;;;;;;;;20.24;60.29;99314.87;4436830;32;26611;-88
2022/07/31 02:32:20;;;;;;;;;;;;;;;20.34;60.29;99304.41;4435140;32;20321;-89
2022/07/31 02:34:45;;;;;;;;;;;;;;;20.13;60.27;99312.25;4429264;32;20037;-88
2022/07/31 02:37:10;;;;;;;;;;;;;;;20.25;60.28;99300.72;4440229;32;19996;-88
2022/07/31 02:39:36;;;;;;;;;;;;;;;20.16;60.28;99318.16;4440182;32;20057;-88
2022/07/31 02:42:01;;;;;;;;;;;;;;;20.18;60.28;99310.09;4450070;32;28285;-88
2022/07/31 02:44:27;;;;;;;;;;;;;;;20.10;60.28;99301.91;4454311;32;19999;-88
2022/07/31 02:46:52;;;;;;;;;;;;;;;19.96;60.27;99302.16;4454414;32;19985;-89
2022/07/31 02:49:18;;;;;;;;;;;;;;;19.93;60.27;99306.72;4439580;32;24287;-88
2022/07/31 02:51:43;;;;;;;;;;;;;;;19.97;60.27;99311.75;4440065;32;19989;-88
2022/07/31 02:54:08;;;;;;;;;;;;;;;19.99;60.27;99304.56;4440222;32;20015;-88
2022/07/31 02:56:34;;;;;;;;;;;;;;;19.96;60.27;99310.09;4429992;32;19982;-88
2022/07/31 02:58:59;;;;;;;;;;;;;;;19.94;60.27;99312.84;4438852;32;19973;-89
2022/07/31 03:01:24;;;;;;;;;;;;;;;19.92;60.26;99317.41;4440043;32;20373;-89
2022/07/31 03:03:49;;;;;;;;;;;;;;;19.95;60.27;99306.59;4440066;32;20065;-88
2022/07/31 03:06:15;;;;;;;;;;;;;;;19.97;60.27;99317.88;4453946;32;20315;-88
2022/07/31 03:08:40;;;;;;;;;;;;;;;19.93;60.27;99319.94;4454365;32;20235;-88
2022/07/31 03:11:06;;;;;;;;;;;;;;;19.82;60.26;99319.91;4440034;32;20032;-88
2022/07/31 03:13:32;;;;;;;;;;;;;;;19.82;60.26;99325.19;4439434;32;20007;-88
2022/07/31 03:15:58;;;;;;;;;;;;;;;20.01;60.27;99319.31;4439847;32;19977;-88
2022/07/31 03:18:23;;;;;;;;;;;;;;;19.87;60.26;99316.91;4440116;32;20004;-88
2022/07/31 03:20:51;;;;;;;;;;;;;;;19.68;60.25;99319.28;4454232;32;20024;-88
2022/07/31 03:23:17;;;;;;;;;;;;;;;19.77;60.25;99310.66;4440417;32;20038;-87
2022/07/31 03:25:42;;;;;;;;;;;;;;;19.66;60.25;99323.84;4439902;32;20338;-87
2022/07/31 03:28:08;;;;;;;;;;;;;;;19.78;60.27;99310.53;4439893;32;19972;-88
2022/07/31 03:30:33;;;;;;;;;;;;;;;20.00;60.27;99314.16;4440343;32;20001;-88
2022/07/31 03:33:02;;;;;;;;;;;;;;;20.06;60.27;99306.59;4453189;32;19981;-88
2022/07/31 03:35:27;;;;;;;;;;;;;;;20.22;60.28;99315.00;4440995;32;19990;-88
2022/07/31 03:37:52;;;;;;;;;;;;;;;20.24;60.30;99310.44;4440798;32;20326;-87
2022/07/31 03:40:18;;;;;;;;;;;;;;;20.18;60.29;99305.66;4462443;32;24090;-87
2022/07/31 03:42:43;;;;;;;;;;;;;;;20.00;60.26;99300.97;4445197;32;19993;-88
2022/07/31 03:45:08;;;;;;;;;;;;;;;20.00;60.28;99304.44;4438873;32;23296;-88
2022/07/31 03:47:33;;;;;;;;;;;;;;;20.07;60.27;99297.69;4439771;32;20038;-88
2022/07/31 03:49:59;;;;;;;;;;;;;;;20.09;60.28;99301.06;4439236;32;19999;-89
2022/07/31 03:52:24;;;;;;;;;;;;;;;20.21;60.28;99299.28;4439542;32;20033;-88
2022/07/31 03:54:49;;;;;;;;;;;;;;;20.04;60.28;99305.03;4439530;32;19980;-89
2022/07/31 03:57:14;;;;;;;;;;;;;;;20.10;60.28;99312.47;4439022;32;20004;-88
2022/07/31 03:59:40;;;;;;;;;;;;;;;20.15;60.27;99312.97;4439587;32;20020;-88
2022/07/31 04:02:06;;;;;;;;;;;;;;;20.16;60.29;99307.56;4439247;32;20030;-88
2022/07/31 04:04:32;;;;;;;;;;;;;;;20.09;60.28;99316.06;4453642;32;20458;-88
2022/07/31 04:06:57;;;;;;;;;;;;;;;20.24;60.29;99309.59;4439148;32;20010;-89
2022/07/31 04:09:22;;;;;;;;;;;;;;;20.04;60.27;99310.31;4439341;32;19993;-88
2022/07/31 04:11:47;;;;;;;;;;;;;;;20.08;60.27;99309.13;4452991;32;19977;-89
2022/07/31 04:14:13;;;;;;;;;;;;;;;20.07;60.27;99303.00;4439192;32;19993;-88
2022/07/31 04:16:38;;;;;;;;;;;;;;;20.17;60.29;99318.97;4439118;32;19985;-88
2022/07/31 04:19:03;;;;;;;;;;;;;;;20.08;60.27;99320.53;4438588;32;24634;-88
2022/07/31 04:21:29;;;;;;;;;;;;;;;20.12;60.27;99314.06;4439299;32;20000;-88
2022/07/31 04:23:54;;;;;;;;;;;;;;;20.00;60.27;99314.16;4439100;32;20312;-89
2022/07/31 04:26:20;;;;;;;;;;;;;;;20.05;60.27;99317.28;4440736;32;19993;-89
2022/07/31 04:28:45;;;;;;;;;;;;;;;19.74;60.26;99332.03;4441029;32;20318;-88
2022/07/31 04:31:10;;;;;;;;;;;;;;;19.67;60.26;99326.38;4440691;32;20031;-88
2022/07/31 04:33:35;;;;;;;;;;;;;;;19.72;60.26;99329.50;4440899;32;19981;-88
2022/07/31 04:36:00;;;;;;;;;;;;;;;19.91;60.26;99313.09;4440810;32;19973;-89
2022/07/31 04:38:26;;;;;;;;;;;;;;;19.89;60.26;99323.78;4440763;32;20373;-88
2022/07/31 04:40:51;;;;;;;;;;;;;;;19.80;60.26;99313.91;4445031;32;23575;-89
2022/07/31 04:43:16;;;;;;;;;;;;;;;19.82;60.26;99313.78;4431492;32;20336;-89
2022/07/31 04:45:42;;;;;;;;;;;;;;;19.72;60.26;99324.22;4440668;32;19985;-89
2022/07/31 04:48:07;;;;;;;;;;;;;;;19.81;60.26;99302.38;4440956;32;19997;-88
2022/07/31 04:50:32;;;;;;;;;;;;;;;19.81;60.26;99312.09;4454926;32;20904;-87
2022/07/31 04:52:57;;;;;;;;;;;;;;;19.72;60.26;99321.56;4454781;32;21647;-88
2022/07/31 04:55:23;;;;;;;;;;;;;;;19.74;60.26;99318.81;4440129;32;31990;-88
2022/07/31 04:57:48;;;;;;;;;;;;;;;19.71;60.26;99316.41;4455166;32;20011;-88
2022/07/31 05:00:13;;;;;;;;;;;;;;;19.68;60.25;99320.13;4440165;32;31820;-88
2022/07/31 05:02:39;;;;;;;;;;;;;;;19.71;60.26;99311.12;4455167;32;19973;-89
2022/07/31 05:05:05;;;;;;;;;;;;;;;19.72;60.26;99305.72;4454078;32;20426;-90
2022/07/31 05:07:30;;;;;;;;;;;;;;;19.64;60.25;99313.41;4453905;32;20008;-87
2022/07/31 05:09:55;;;;;;;;;;;;;;;19.54;60.24;99317.69;4455442;32;19977;-89
2022/07/31 05:12:21;;;;;;;;;;;;;;;19.65;60.25;99324.81;4441022;32;19973;-88
2022/07/31 05:14:46;;;;;;;;;;;;;;;19.70;60.25;99320.03;4440704;32;27203;-88
2022/07/31 05:17:11;;;;;;;;;;;;;;;19.69;60.25;99320.97;4455624;32;23015;-89
2022/07/31 05:19:37;;;;;;;;;;;;;;;19.65;60.25;99316.91;4443993;32;25283;-89
2022/07/31 05:22:03;;;;;;;;;;;;;;;19.63;60.26;99315.19;4460886;32;20350;-89
2022/07/31 05:24:29;;;;;;;;;;;;;;;19.59;60.25;99319.00;4441056;32;20003;-88
2022/07/31 05:26:54;;;;;;;;;;;;;;;19.69;60.25;99321.81;4455370;32;19989;-89
2022/07/31 05:29:19;;;;;;;;;;;;;;;19.54;60.25;99325.63;4440809;32;20007;-88
2022/07/31 05:31:44;;;;;;;;;;;;;;;19.47;60.25;99319.09;4440495;32;25923;-89
2022/07/31 05:34:10;;;;;;;;;;;;;;;19.49;60.25;99325.94;4440778;32;20347;-88
2022/07/31 05:36:35;;;;;;;;;;;;;;;19.17;60.23;99324.88;4440510;32;20485;-89
2022/07/31 05:39:00;;;;;;;;;;;;;;;19.18;60.23;99332.66;4440622;32;23744;-89
2022/07/31 05:41:26;;;;;;;;;;;;;;;18.94;60.22;99321.28;4448078;32;29031;-88
2022/07/31 05:43:51;;;;;;;;;;;;;;;18.80;60.21;99345.16;4440903;32;19993;-89
2022/07/31 05:46:16;;;;;;;;;;;;;;;18.86;60.21;99339.44;4440451;32;20029;-88
2022/07/31 05:48:42;;;;;;;;;;;;;;;18.86;60.21;99331.53;4451096;32;20066;-89
2022/07/31 05:51:09;;;;;;;;;;;;;;;18.98;60.21;99347.31;4440683;32;19976;-88
2022/07/31 05:53:34;;;;;;;;;;;;;;;19.04;60.22;99335.47;4454819;32;19973;-89
2022/07/31 05:55:59;;;;;;;;;;;;;;;19.12;60.22;99335.72;4440288;32;20040;-89
2022/07/31 05:58:24;;;;;;;;;;;;;;;19.04;60.22;99332.00;4454395;32;19973;-88
2022/07/31 06:00:50;;;;;;;;;;;;;;;19.02;60.22;99337.37;4454216;32;19996;-89
2022/07/31 06:03:15;;;;;;;;;;;;;;;19.14;60.22;99348.81;4440687;32;19989;-88
2022/07/31 06:05:40;;;;;;;;;;;;;;;19.15;60.22;99350.50;4440457;32;20012;-89
2022/07/31 06:08:06;;;;;;;;;;;;;;;19.19;60.23;99354.63;4454775;32;20000;-89
2022/07/31 06:10:31;;;;;;;;;;;;;;;19.24;60.23;99348.03;4440496;32;19981;-89
2022/07/31 06:12:56;;;;;;;;;;;;;;;19.42;60.24;99351.13;4440382;32;20462;-88
2022/07/31 06:15:22;;;;;;;;;;;;;;;19.35;60.24;99351.66;4440480;32;20009;-89
2022/07/31 06:17:47;;;;;;;;;;;;;;;19.10;60.22;99348.19;4440369;32;19977;-88
2022/07/31 06:20:12;;;;;;;;;;;;;;;19.13;60.22;99345.34;4440399;32;19993;-89
2022/07/31 06:22:38;;;;;;;;;;;;;;;19.28;60.23;99356.56;4454619;32;19969;-88
2022/07/31 06:25:04;;;;;;;;;;;;;;;19.29;60.23;99359.09;4447306;32;20013;-89
2022/07/31 06:27:29;;;;;;;;;;;;;;;19.32;60.24;99358.84;4436710;32;20033;-89
2022/07/31 06:29:56;;;;;;;;;;;;;;;19.50;60.24;99361.09;4454667;32;20001;-89
2022/07/31 06:32:21;;;;;;;;;;;;;;;19.38;60.23;99359.34;4440961;32;20034;-88
2022/07/31 06:34:47;;;;;;;;;;;;;;;19.38;60.23;99364.62;4439682;32;22842;-88
2022/07/31 06:37:12;;;;;;;;;;;;;;;19.07;60.22;99358.97;4437784;32;20020;-88
2022/07/31 06:39:37;;;;;;;;;;;;;;;19.01;60.22;99362.06;4438210;32;19981;-88
2022/07/31 06:42:02;;;;;;;;;;;;;;;19.13;60.22;99369.06;4450977;32;19985;-88
2022/07/31 06:44:28;;;;;;;;;;;;;;;19.11;60.22;99362.22;4440492;32;20001;-89
2022/07/31 06:46:53;;;;;;;;;;;;;;;19.14;60.22;99370.75;4440676;32;19993;-89
2022/07/31 06:49:18;;;;;;;;;;;;;;;19.33;60.24;99373.75;4439507;32;20019;-89
2022/07/31 06:51:44;;;;;;;;;;;;;;;19.41;60.25;99375.81;4440673;32;20331;-88
2022/07/31 06:54:09;;;;;;;;;;;;;;;19.48;60.25;99368.28;4444242;32;19988;-88
2022/07/31 06:56:34;;;;;;;;;;;;;;;19.32;60.24;99372.06;4443830;32;20363;-89
2022/07/31 06:59:00;;;;;;;;;;;;;;;19.44;60.23;99366.84;4433770;32;19991;-89
2022/07/31 07:01:25;;;;;;;;;;;;;;;19.41;60.24;99372.34;4452229;32;19976;-89
2022/07/31 07:03:50;;;;;;;;;;;;;;;19.65;60.25;99373.19;4439565;32;20266;-90
2022/07/31 07:06:15;;;;;;;;;;;;;;;19.65;60.25;99365.25;4432037;32;20001;-88
2022/07/31 07:08:41;;;;;;;;;;;;;;;19.86;60.27;99365.41;4453140;32;24790;-89
2022/07/31 07:11:06;;;;;;;;;;;;;;;19.66;60.25;99366.94;4453647;32;27584;-90
2022/07/31 07:13:31;;;;;;;;;;;;;;;19.56;60.25;99365.94;4440826;32;19993;-89
2022/07/31 07:15:56;;;;;;;;;;;;;;;19.57;60.25;99351.78;4454678;32;20027;-88
2022/07/31 07:18:22;;;;;;;;;;;;;;;19.65;60.25;99361.78;4440719;32;23648;-89
2022/07/31 07:20:47;;;;;;;;;;;;;;;19.59;60.25;99360.41;4454400;32;20237;-88
2022/07/31 07:23:13;;;;;;;;;;;;;;;19.65;60.25;99361.78;4440802;32;20033;-89
2022/07/31 07:25:38;;;;;;;;;;;;;;;19.69;60.25;99364.06;4449347;32;19996;-88
2022/07/31 07:28:03;;;;;;;;;;;;;;;19.82;60.26;99364.81;4441176;32;20013;-90
2022/07/31 07:30:29;;;;;;;;;;;;;;;20.13;60.27;99350.09;4441069;32;20008;-88
2022/07/31 07:32:54;;;;;;;;;;;;;;;20.06;60.27;99354.16;4455158;32;20020;-88
2022/07/31 07:35:20;;;;;;;;;;;;;;;20.05;60.28;99346.34;4440320;32;20511;-89
2022/07/31 07:37:45;;;;;;;;;;;;;;;20.06;60.27;99342.75;4441186;32;19991;-89
2022/07/31 07:40:11;;;;;;;;;;;;;;;20.04;60.27;99352.59;4442910;32;20044;-88
2022/07/31 07:42:36;;;;;;;;;;;;;;;20.07;60.27;99365.56;4439748;32;20044;-89
2022/07/31 07:45:01;;;;;;;;;;;;;;;20.08;60.27;99351.38;4453532;32;20015;-89
2022/07/31 07:47:26;;;;;;;;;;;;;;;20.25;60.28;99345.63;4439754;32;20016;-89
2022/07/31 07:49:52;;;;;;;;;;;;;;;20.53;60.29;99358.41;4439292;32;20441;-89
2022/07/31 07:52:17;;;;;;;;;;;;;;;20.43;60.29;99338.94;4439158;32;19993;-89
2022/07/31 07:54:42;;;;;;;;;;;;;;;20.61;60.30;99344.59;4445742;32;20005;-88
2022/07/31 07:57:08;;;;;;;;;;;;;;;20.57;60.30;99337.84;4439456;32;20055;-89
2022/07/31 07:59:33;;;;;;;;;;;;;;;20.59;60.30;99343.03;4440485;32;19985;-88
2022/07/31 08:01:59;;;;;;;;;;;;;;;20.81;60.31;99345.59;4458427;32;20050;-89
2022/07/31 08:04:24;;;;;;;;;;;;;;;20.83;60.31;99352.47;4444466;32;19989;-89
2022/07/31 08:06:49;;;;;;;;;;;;;;;21.24;60.33;99347.44;4444534;32;20242;-89
2022/07/31 08:09:15;;;;;;;;;;;;;;;21.22;60.33;99366.06;4444476;32;20000;-89
2022/07/31 08:11:40;;;;;;;;;;;;;;;21.34;60.34;99343.91;4458631;32;19992;-88
2022/07/31 08:14:05;;;;;;;;;;;;;;;21.65;60.36;99355.44;4444139;32;20065;-89
2022/07/31 08:16:31;;;;;;;;;;;;;;;21.87;60.37;99357.12;4457136;32;19997;-88
2022/07/31 08:18:56;;;;;;;;;;;;;;;21.91;60.37;99370.94;4444781;32;19973;-88
2022/07/31 08:21:22;;;;;;;;;;;;;;;21.75;60.36;99366.09;4458767;32;20018;-89
2022/07/31 08:23:47;;;;;;;;;;;;;;;21.68;60.35;99365.78;4444664;32;19996;-89
2022/07/31 08:26:13;;;;;;;;;;;;;;;21.90;60.37;99367.44;4458967;32;20302;-89
2022/07/31 08:28:38;;;;;;;;;;;;;;;22.08;60.38;99370.38;4445316;32;19988;-88
2022/07/31 08:31:03;;;;;;;;;;;;;;;22.01;60.37;99378.00;4444093;32;28040;-89
2022/07/31 08:33:29;;;;;;;;;;;;;;;22.29;60.38;99371.19;4459186;32;19977;-88
2022/07/31 08:35:54;;;;;;;;;;;;;;;22.44;60.40;99360.22;4445241;32;20357;-88
2022/07/31 08:38:19;;;;;;;;;;;;;;;22.61;60.41;99368.37;4458571;32;19984;-89
2022/07/31 08:40:45;;;;;;;;;;;;;;;22.70;60.41;99363.22;4453378;32;20001;-88
2022/07/31 08:43:13;;;;;;;;;;;;;;;22.75;60.41;99347.75;4441639;32;20001;-89
2022/07/31 08:45:41;;;;;;;;;;;;;;;22.91;60.42;99361.34;4443907;32;19996;-88
2022/07/31 08:48:07;;;;;;;;;;;;;;;22.81;60.41;99366.66;4444092;32;19976;-89
2022/07/31 08:50:32;;;;;;;;;;;;;;;22.53;60.40;99367.38;4443887;32;20385;-89
2022/07/31 08:52:57;;;;;;;;;;;;;;;22.48;60.39;99366.94;4443896;32;20001;-89
2022/07/31 08:55:23;;;;;;;;;;;;;;;22.39;60.39;99367.72;4443256;32;20241;-89
2022/07/31 08:57:48;;;;;;;;;;;;;;;22.21;60.39;99373.66;4443537;32;19999;-88
2022/07/31 09:00:16;;;;;;;;;;;;;;;22.04;60.38;99385.72;4457773;32;19980;-89
2022/07/31 09:02:41;;;;;;;;;;;;;;;21.73;60.36;99381.28;4457968;32;19989;-88
2022/07/31 09:05:07;;;;;;;;;;;;;;;21.55;60.35;99388.97;4443714;32;20075;-89
2022/07/31 09:07:32;;;;;;;;;;;;;;;21.60;60.35;99396.53;4443528;32;19991;-89
2022/07/31 09:09:57;;;;;;;;;;;;;;;21.29;60.34;99395.53;4443612;32;19989;-89
2022/07/31 09:12:29;;;;;;;;;;;;;;;21.12;60.33;99405.69;4440543;32;20008;-88
2022/07/31 09:14:54;;;;;;;;;;;;;;;20.92;60.32;99401.16;4442319;32;19973;-89
2022/07/31 09:17:29;;;;;;;;;;;;;;;20.81;60.32;99391.41;4455452;32;20015;-88
2022/07/31 09:19:54;;;;;;;;;;;;;;;20.88;60.32;99394.44;4455143;32;20365;-89
2022/07/31 09:22:20;;;;;;;;;;;;;;;20.99;60.32;99404.97;4440819;32;19970;-88
2022/07/31 09:24:45;;;;;;;;;;;;;;;21.08;60.32;99404.25;4453631;32;20291;-88
2022/07/31 09:27:12;;;;;;;;;;;;;;;21.17;60.33;99407.97;4454632;32;19969;-89
2022/07/31 09:29:40;;;;;;;;;;;;;;;21.21;60.33;99406.75;4440956;32;19977;-89
2022/07/31 09:32:09;;;;;;;;;;;;;;;20.89;60.32;99427.88;4440834;32;19997;-89
2022/07/31 09:34:35;;;;;;;;;;;;;;;20.47;60.30;99422.34;4441022;32;20016;-89
2022/07/31 09:37:09;;;;;;;;;;;;;;;20.56;60.31;99423.41;4454775;32;19988;-88
2022/07/31 09:39:36;;;;;;;;;;;;;;;20.50;60.30;99408.03;4440873;32;19993;-89
2022/07/31 09:42:01;;;;;;;;;;;;;;;20.56;60.31;99406.72;4451534;32;20005;-89
2022/07/31 09:44:52;;;;;;;;;;;;;;;20.29;60.29;99386.72;4455104;32;20023;-90
2022/07/31 09:47:25;;;;;;;;;;;;;;;20.36;60.29;99390.59;4452770;32;20027;-88
2022/07/31 09:49:55;;;;;;;;;;;;;;;20.68;60.31;99408.41;4440986;32;20012;-88
2022/07/31 09:52:20;;;;;;;;;;;;;;;20.82;60.31;99379.91;4455370;32;19985;-89
2022/07/31 09:54:46;;;;;;;;;;;;;;;20.93;60.32;99391.41;4440507;32;25147;-89
2022/07/31 09:57:11;;;;;;;;;;;;;;;21.03;60.32;99413.50;4432004;32;19985;-90
2022/07/31 09:59:37;;;;;;;;;;;;;;;20.99;60.33;99404.16;4454951;32;20016;-88
2022/07/31 10:02:02;;;;;;;;;;;;;;;20.85;60.31;99386.75;4440334;32;19981;-87
2022/07/31 10:04:27;;;;;;;;;;;;;;;21.24;60.33;99405.69;4440721;32;19989;-88
2022/07/31 10:06:52;;;;;;;;;;;;;;;21.24;60.33;99393.28;4439971;32;29269;-89
2022/07/31 10:09:18;;;;;;;;;;;;;;;21.23;60.33;99433.09;4440186;32;30622;-88
2022/07/31 10:11:44;;;;;;;;;;;;;;;21.13;60.33;99393.28;4455219;32;19985;-88
2022/07/31 10:14:12;;;;;;;;;;;;;;;21.44;60.35;99402.25;4454565;32;20013;-88
2022/07/31 10:16:37;;;;;;;;;;;;;;;21.49;60.35;99389.47;4455037;32;20432;-88
2022/07/31 10:19:09;;;;;;;;;;;;;;;21.64;60.36;99393.50;4448271;32;19965;-89
2022/07/31 10:21:36;;;;;;;;;;;;;;;21.37;60.35;99382.53;4459105;32;19997;-90
2022/07/31 10:24:05;;;;;;;;;;;;;;;21.22;60.33;99397.00;4440152;32;20353;-88
2022/07/31 10:26:30;;;;;;;;;;;;;;;21.12;60.33;99381.03;4453258;32;20376;-89
2022/07/31 10:28:56;;;;;;;;;;;;;;;21.53;60.35;99385.59;4454450;32;19997;-88
2022/07/31 10:31:21;;;;;;;;;;;;;;;21.73;60.37;99387.41;4440228;32;19985;-88
2022/07/31 10:33:46;;;;;;;;;;;;;;;21.60;60.35;99404.47;4439944;32;32370;-88
2022/07/31 10:36:19;;;;;;;;;;;;;;;21.51;60.35;99389.31;4429560;32;19992;-87
2022/07/31 10:38:44;;;;;;;;;;;;;;;21.51;60.35;99384.88;4440664;32;20007;-87
2022/07/31 10:41:31;;;;;;;;;;;;;;;21.61;60.35;99375.22;4454229;32;19977;-87
2022/07/31 10:43:58;;;;;;;;;;;;;;;21.59;60.35;99377.16;4453053;32;19995;-88
2022/07/31 10:46:27;;;;;;;;;;;;;;;21.62;60.35;99382.19;4440234;32;19977;-89
2022/07/31 10:48:52;;;;;;;;;;;;;;;21.52;60.36;99397.13;4440165;32;20012;-89
2022/07/31 10:51:17;;;;;;;;;;;;;;;21.76;60.37;99392.44;4440371;32;20293;-88
2022/07/31 10:53:52;;;;;;;;;;;;;;;21.88;60.38;99395.88;4442020;32;20068;-88
2022/07/31 10:56:17;;;;;;;;;;;;;;;22.01;60.38;99412.44;4454503;32;19988;-89
2022/07/31 10:58:46;;;;;;;;;;;;;;;22.10;60.39;99402.91;4454364;32;19989;-89
2022/07/31 11:01:11;;;;;;;;;;;;;;;21.91;60.37;99435.38;4440319;32;20050;-89
2022/07/31 11:03:43;;;;;;;;;;;;;;;21.60;60.36;99397.38;4440033;32;20029;-89
2022/07/31 11:06:08;;;;;;;;;;;;;;;21.68;60.36;99410.81;4440498;32;19973;-89
2022/07/31 11:08:40;;;;;;;;;;;;;;;21.82;60.37;99414.13;4439823;32;20011;-89
2022/07/31 11:11:05;;;;;;;;;;;;;;;21.90;60.37;99412.50;4440121;32;20346;-89
2022/07/31 11:13:32;;;;;;;;;;;;;;;22.03;60.39;99422.91;4454269;32;19973;-89
2022/07/31 11:16:03;;;;;;;;;;;;;;;22.22;60.40;99454.84;4454271;32;20008;-88
2022/07/31 11:18:29;;;;;;;;;;;;;;;22.20;60.39;99440.91;4440173;32;20082;-88
2022/07/31 11:21:01;;;;;;;;;;;;;;;22.23;60.38;99443.28;4454035;32;20278;-88
2022/07/31 11:23:29;;;;;;;;;;;;;;;22.27;60.40;99433.28;4454113;32;20619;-89
2022/07/31 11:25:57;;;;;;;;;;;;;;;22.56;60.40;99439.56;4440097;32;19969;-88
2022/07/31 11:28:23;;;;;;;;;;;;;;;22.59;60.41;99457.03;4453842;32;19996;-89
2022/07/31 11:30:49;;;;;;;;;;;;;;;22.63;60.41;99439.88;4452540;32;20052;-89
2022/07/31 11:33:15;;;;;;;;;;;;;;;22.98;60.43;99436.00;4452858;32;19973;-88
2022/07/31 11:35:41;;;;;;;;;;;;;;;23.37;60.45;99443.03;4453215;32;19996;-89
2022/07/31 11:38:06;;;;;;;;;;;;;;;23.27;60.45;99443.03;4453854;32;20065;-88
2022/07/31 11:40:32;;;;;;;;;;;;;;;23.31;60.44;99451.56;4441857;32;19993;-89
2022/07/31 11:42:57;;;;;;;;;;;;;;;23.38;60.45;99455.34;4453372;32;26921;-88
2022/07/31 11:45:22;;;;;;;;;;;;;;;23.50;60.46;99443.63;4453685;32;19973;-88
2022/07/31 11:47:47;;;;;;;;;;;;;;;23.63;60.46;99450.50;4431209;32;20404;-88
2022/07/31 11:50:13;;;;;;;;;;;;;;;23.81;60.48;99455.00;4436865;32;19997;-89
2022/07/31 11:52:42;;;;;;;;;;;;;;;23.71;60.46;99466.63;4439615;32;19985;-87
2022/07/31 11:55:16;;;;;;;;;;;;;;;23.54;60.46;99471.59;4440106;32;20021;-89
2022/07/31 11:57:41;;;;;;;;;;;;;;;22.97;60.43;99464.34;4443514;32;20021;-89
2022/07/31 12:00:07;;;;;;;;;;;;;;;22.83;60.42;99457.59;4450546;32;20024;-90
2022/07/31 12:02:32;;;;;;;;;;;;;;;22.73;60.42;99474.44;4453912;32;20313;-88
2022/07/31 12:05:00;;;;;;;;;;;;;;;22.74;60.42;99455.72;4439003;32;28782;-87
2022/07/31 12:07:25;;;;;;;;;;;;;;;22.67;60.42;99459.84;4452277;32;20001;-88
2022/07/31 12:09:51;;;;;;;;;;;;;;;22.65;60.42;99473.25;4439117;32;20757;-88
2022/07/31 12:12:16;;;;;;;;;;;;;;;22.57;60.42;99467.78;4438774;32;25132;-87
2022/07/31 12:14:41;;;;;;;;;;;;;;;22.40;60.40;99464.88;4438583;32;26654;-88
2022/07/31 12:17:06;;;;;;;;;;;;;;;22.58;60.41;99445.56;4438687;32;23631;-88
2022/07/31 12:19:32;;;;;;;;;;;;;;;22.60;60.41;99456.91;4452732;32;23281;-87
2022/07/31 12:21:58;;;;;;;;;;;;;;;22.31;60.39;99458.56;4453371;32;20356;-88
2022/07/31 12:24:23;;;;;;;;;;;;;;;22.34;60.40;99464.44;4439532;32;19973;-87
2022/07/31 12:26:52;;;;;;;;;;;;;;;22.40;60.41;99452.47;4438511;32;28513;-88
2022/07/31 12:29:18;;;;;;;;;;;;;;;22.45;60.40;99475.94;4439069;32;20001;-87
2022/07/31 12:31:50;;;;;;;;;;;;;;;22.31;60.40;99485.09;4432662;32;20003;-87
2022/07/31 12:34:31;;;;;;;;;;;;;;;22.45;60.40;99468.81;4449484;32;20042;-88
2022/07/31 12:37:06;;;;;;;;;;;;;;;22.14;60.39;99486.50;4438986;32;20004;-87
2022/07/31 12:39:35;;;;;;;;;;;;;;;22.10;60.39;99487.72;4438980;32;20036;-88
2022/07/31 12:42:01;;;;;;;;;;;;;;;21.90;60.38;99493.81;4449319;32;20004;-87